createdAt,value
2022-12-18T00:02:16.534Z,20.08
2022-12-18T00:04:43.393Z,18.50
2022-12-18T00:07:10.080Z,17.10
2022-12-18T00:09:40.145Z,17.83
2022-12-18T00:14:43.295Z,17.08
2022-12-18T00:17:10.159Z,17.23
2022-12-18T00:19:36.853Z,17.00
2022-12-18T00:22:03.833Z,17.92
2022-12-18T00:24:30.577Z,17.60
2022-12-18T00:26:57.209Z,15.60
2022-12-18T00:29:23.984Z,19.70
2022-12-18T00:31:50.726Z,17.38
2022-12-18T00:34:17.454Z,20.73
2022-12-18T00:36:44.283Z,14.88
2022-12-18T00:39:13.016Z,17.75
2022-12-18T00:41:58.523Z,19.00
2022-12-18T00:44:25.154Z,19.25
2022-12-18T00:46:51.965Z,21.60
2022-12-18T00:49:20.599Z,20.45
2022-12-18T00:51:47.977Z,22.20
2022-12-18T00:54:15.067Z,22.50
2022-12-18T00:56:49.997Z,23.42
2022-12-18T00:59:20.012Z,22.08
2022-12-18T01:01:47.688Z,27.45
2022-12-18T01:04:14.982Z,22.63
2022-12-18T01:06:41.835Z,24.75
2022-12-18T01:09:08.514Z,25.02
2022-12-18T01:11:35.102Z,24.27
2022-12-18T01:14:02.046Z,26.27
2022-12-18T01:16:28.945Z,25.45
2022-12-18T01:18:56.257Z,26.02
2022-12-18T01:21:24.300Z,21.85
2022-12-18T01:23:56.582Z,25.85
2022-12-18T01:26:24.733Z,26.42
2022-12-18T01:28:51.327Z,23.10
2022-12-18T01:31:27.337Z,26.13
2022-12-18T01:33:55.247Z,27.77
2022-12-18T01:36:28.507Z,24.92
2022-12-18T01:38:55.414Z,26.10
2022-12-18T01:41:25.782Z,24.40
2022-12-18T01:43:58.497Z,21.35
2022-12-18T01:46:27.904Z,23.88
2022-12-18T01:48:58.092Z,25.08
2022-12-18T01:51:26.788Z,23.73
2022-12-18T01:53:53.682Z,24.90
2022-12-18T01:56:22.704Z,22.55
2022-12-18T01:59:06.029Z,23.10
2022-12-18T02:01:34.023Z,23.45
2022-12-18T02:04:23.804Z,21.40
2022-12-18T02:07:35.341Z,23.90
2022-12-18T02:10:22.872Z,24.35
2022-12-18T02:12:56.879Z,23.10
2022-12-18T02:15:28.208Z,23.48
2022-12-18T02:18:13.117Z,25.70
2022-12-18T02:20:48.891Z,21.83
2022-12-18T02:23:43.507Z,21.17
2022-12-18T02:26:22.147Z,25.27
2022-12-18T02:28:55.733Z,21.60
2022-12-18T02:31:27.643Z,24.50
2022-12-18T02:33:58.328Z,23.92
2022-12-18T02:36:26.217Z,24.40
2022-12-18T02:38:54.894Z,23.40
2022-12-18T02:41:22.842Z,25.48
2022-12-18T02:44:02.934Z,23.92
2022-12-18T02:46:34.569Z,25.85
2022-12-18T02:49:06.344Z,24.88
2022-12-18T02:52:11.538Z,28.60
2022-12-18T02:54:44.857Z,27.25
2022-12-18T02:57:44.102Z,30.17
2022-12-18T03:00:19.890Z,26.88
2022-12-18T03:03:00.830Z,27.23
2022-12-18T03:05:53.874Z,27.60
2022-12-18T03:08:25.266Z,28.10
2022-12-18T03:11:13.432Z,25.90
2022-12-18T03:13:57.231Z,26.92
2022-12-18T03:16:31.461Z,26.40
2022-12-18T03:19:02.331Z,29.52
2022-12-18T03:21:43.273Z,30.45
2022-12-18T03:24:12.021Z,27.50
2022-12-18T03:26:44.954Z,32.90
2022-12-18T03:29:20.168Z,27.15
2022-12-18T03:31:58.045Z,28.95
2022-12-18T03:34:32.546Z,29.40
2022-12-18T03:36:59.532Z,28.73
2022-12-18T03:39:26.744Z,27.58
2022-12-18T03:42:01.723Z,30.85
2022-12-18T03:44:37.103Z,29.58
2022-12-18T03:47:26.770Z,28.52
2022-12-18T03:50:44.218Z,27.70
2022-12-18T03:53:33.859Z,28.85
2022-12-18T03:56:01.914Z,28.60
2022-12-18T03:58:30.216Z,22.80
2022-12-18T04:01:02.649Z,25.70
2022-12-18T04:03:32.188Z,24.75
2022-12-18T04:06:01.950Z,26.00
2022-12-18T04:08:29.455Z,24.25
2022-12-18T04:10:56.454Z,29.25
2022-12-18T04:13:30.604Z,26.30
2022-12-18T04:15:57.828Z,27.60
2022-12-18T04:18:24.433Z,26.50
2022-12-18T04:20:51.228Z,26.75
2022-12-18T04:23:18.064Z,24.75
2022-12-18T04:25:44.695Z,26.20
2022-12-18T04:28:11.360Z,25.25
2022-12-18T04:30:38.012Z,27.65
2022-12-18T04:33:04.617Z,25.25
2022-12-18T04:35:31.566Z,26.02
2022-12-18T04:37:58.313Z,23.67
2022-12-18T04:40:25.027Z,20.80
2022-12-18T04:42:51.986Z,22.02
2022-12-18T04:45:19.058Z,22.67
2022-12-18T04:47:45.674Z,24.27
2022-12-18T04:50:12.764Z,22.58
2022-12-18T04:52:39.531Z,21.35
2022-12-18T04:55:06.425Z,22.25
2022-12-18T04:57:33.141Z,23.25
2022-12-18T05:00:00.005Z,19.20
2022-12-18T05:02:26.714Z,20.35
2022-12-18T05:04:53.871Z,20.52
2022-12-18T05:07:20.709Z,23.73
2022-12-18T05:09:47.328Z,19.20
2022-12-18T05:12:14.077Z,21.52
2022-12-18T05:14:40.753Z,23.38
2022-12-18T05:17:07.329Z,19.70
2022-12-18T05:19:34.684Z,23.15
2022-12-18T05:22:02.488Z,20.55
2022-12-18T05:24:29.062Z,20.67
2022-12-18T05:26:55.788Z,20.90
2022-12-18T05:29:22.446Z,21.23
2022-12-18T05:31:49.097Z,20.58
2022-12-18T05:34:15.977Z,19.73
2022-12-18T05:36:42.938Z,19.73
2022-12-18T05:39:09.881Z,17.83
2022-12-18T05:41:36.683Z,21.75
2022-12-18T05:44:03.575Z,19.48
2022-12-18T05:46:32.089Z,16.73
2022-12-18T05:49:02.401Z,20.63
2022-12-18T05:51:29.441Z,15.98
2022-12-18T05:53:56.251Z,19.77
2022-12-18T05:56:24.303Z,20.38
2022-12-18T05:58:54.628Z,19.88
2022-12-18T06:01:25.023Z,21.58
2022-12-18T06:03:52.236Z,19.65
2022-12-18T06:06:27.681Z,19.85
2022-12-18T06:08:55.939Z,19.17
2022-12-18T06:11:24.998Z,21.02
2022-12-18T06:13:58.282Z,19.98
2022-12-18T06:16:26.787Z,20.45
2022-12-18T06:18:53.733Z,19.20
2022-12-18T06:21:20.842Z,22.45
2022-12-18T06:23:47.658Z,19.67
2022-12-18T06:26:15.283Z,20.10
2022-12-18T06:28:42.378Z,22.15
2022-12-18T06:31:10.487Z,19.45
2022-12-18T06:33:38.439Z,18.90
2022-12-18T06:36:12.147Z,20.65
2022-12-18T06:38:41.545Z,22.13
2022-12-18T06:41:12.754Z,20.85
2022-12-18T06:43:42.171Z,22.52
2022-12-18T06:46:09.823Z,20.77
2022-12-18T06:48:36.628Z,21.67
2022-12-18T06:51:04.067Z,22.73
2022-12-18T06:53:31.216Z,26.98
2022-12-18T06:56:10.249Z,25.15
2022-12-18T06:58:37.198Z,22.33
2022-12-18T07:01:06.099Z,24.95
2022-12-18T07:03:32.958Z,27.08
2022-12-18T07:05:59.632Z,22.55
2022-12-18T07:08:26.653Z,23.05
2022-12-18T07:10:56.503Z,23.17
2022-12-18T07:13:23.838Z,22.98
2022-12-18T07:15:50.506Z,24.33
2022-12-18T07:18:21.616Z,21.05
2022-12-18T07:20:48.426Z,22.10
2022-12-18T07:23:15.706Z,22.90
2022-12-18T07:25:42.471Z,27.90
2022-12-18T07:28:12.853Z,23.88
2022-12-18T07:30:47.966Z,24.85
2022-12-18T07:33:14.849Z,26.38
2022-12-18T07:35:41.433Z,25.52
2022-12-18T07:38:08.474Z,23.48
2022-12-18T07:40:35.250Z,24.50
2022-12-18T07:43:01.864Z,25.88
2022-12-18T07:45:28.677Z,26.90
2022-12-18T07:47:55.601Z,28.15
2022-12-18T07:50:22.261Z,23.67
2022-12-18T07:52:49.081Z,24.58
2022-12-18T07:55:16.042Z,21.95
2022-12-18T07:57:50.556Z,24.40
2022-12-18T08:00:19.145Z,27.27
2022-12-18T08:02:45.796Z,26.75
2022-12-18T08:05:12.449Z,24.55
2022-12-18T08:07:39.300Z,23.63
2022-12-18T08:10:06.983Z,25.10
2022-12-18T08:12:33.654Z,24.60
2022-12-18T08:15:00.689Z,25.80
2022-12-18T08:17:27.329Z,25.05
2022-12-18T08:19:53.888Z,25.77
2022-12-18T08:22:20.782Z,22.30
2022-12-18T08:24:47.347Z,24.80
2022-12-18T08:27:28.870Z,20.60
2022-12-18T08:30:00.810Z,23.95
2022-12-18T08:32:29.285Z,24.17
2022-12-18T08:34:55.983Z,26.90
2022-12-18T08:37:27.116Z,23.73
2022-12-18T08:39:53.655Z,26.05
2022-12-18T08:42:38.955Z,25.45
2022-12-18T08:45:06.038Z,25.35
2022-12-18T08:47:32.647Z,28.35
2022-12-18T08:49:59.551Z,29.15
2022-12-18T08:52:29.255Z,30.27
2022-12-18T08:54:55.846Z,31.50
2022-12-18T08:57:22.646Z,26.00
2022-12-18T08:59:49.431Z,24.95
2022-12-18T09:02:16.176Z,28.08
2022-12-18T09:04:43.210Z,27.27
2022-12-18T09:07:10.131Z,24.67
2022-12-18T09:09:36.949Z,24.77
2022-12-18T09:12:04.294Z,24.38
2022-12-18T09:14:33.030Z,27.10
2022-12-18T09:16:59.797Z,25.88
2022-12-18T09:19:26.650Z,25.10
2022-12-18T09:21:53.357Z,26.42
2022-12-18T09:24:19.973Z,24.02
2022-12-18T09:26:47.601Z,23.95
2022-12-18T09:29:15.676Z,25.95
2022-12-18T09:31:43.430Z,23.27
2022-12-18T09:34:10.428Z,29.35
2022-12-18T09:36:37.427Z,24.98
2022-12-18T09:39:08.140Z,22.90
2022-12-18T09:41:43.913Z,21.23
2022-12-18T09:44:43.083Z,25.50
2022-12-18T09:47:18.052Z,21.65
2022-12-18T09:49:51.707Z,23.40
2022-12-18T09:52:46.312Z,24.08
2022-12-18T09:55:43.835Z,23.30
2022-12-18T09:58:11.094Z,27.80
2022-12-18T10:00:37.921Z,25.45
2022-12-18T10:03:14.940Z,23.13
2022-12-18T10:06:15.139Z,24.77
2022-12-18T10:08:45.286Z,25.00
2022-12-18T10:11:25.099Z,25.27
2022-12-18T10:14:07.727Z,26.58
2022-12-18T10:16:40.034Z,27.88
2022-12-18T10:19:37.121Z,26.08
2022-12-18T10:22:18.901Z,27.20
2022-12-18T10:24:54.744Z,25.02
2022-12-18T10:27:26.890Z,25.42
2022-12-18T10:29:53.980Z,25.45
2022-12-18T10:32:26.550Z,22.15
2022-12-18T10:35:00.467Z,25.73
2022-12-18T10:37:30.391Z,23.88
2022-12-18T10:40:18.231Z,27.02
2022-12-18T10:43:04.063Z,26.27
2022-12-18T10:45:30.928Z,23.33
2022-12-18T10:47:57.598Z,24.05
2022-12-18T10:51:09.099Z,21.27
2022-12-18T10:53:26.399Z,23.85
2022-12-18T10:55:56.148Z,24.98
2022-12-18T10:58:26.727Z,24.67
2022-12-18T11:01:07.863Z,23.38
2022-12-18T11:03:39.288Z,20.85
2022-12-18T11:06:12.138Z,22.48
2022-12-18T11:08:39.939Z,23.67
2022-12-18T11:11:20.297Z,22.88
2022-12-18T11:14:04.762Z,23.63
2022-12-18T11:19:13.962Z,22.52
2022-12-18T11:21:43.220Z,23.20
2022-12-18T11:24:30.918Z,25.92
2022-12-18T11:27:03.971Z,26.23
2022-12-18T11:29:37.364Z,24.00
2022-12-18T11:32:31.313Z,22.50
2022-12-18T11:35:05.302Z,21.95
2022-12-18T11:37:34.193Z,25.15
2022-12-18T11:40:07.716Z,22.20
2022-12-18T11:42:41.439Z,24.67
2022-12-18T11:45:14.331Z,22.30
2022-12-18T11:47:59.447Z,21.75
2022-12-18T11:50:33.083Z,25.15
2022-12-18T11:53:05.589Z,22.83
2022-12-18T11:56:05.879Z,23.77
2022-12-18T11:59:11.340Z,25.20
2022-12-18T12:01:52.061Z,23.23
2022-12-18T12:04:31.837Z,26.35
2022-12-18T12:07:32.527Z,20.90
2022-12-18T12:10:05.274Z,20.25
2022-12-18T12:12:51.858Z,23.17
2022-12-18T12:15:37.929Z,21.15
2022-12-18T12:18:13.316Z,18.90
2022-12-18T12:20:45.809Z,21.95
2022-12-18T12:23:31.394Z,19.75
2022-12-18T12:26:07.514Z,22.58
2022-12-18T12:28:58.525Z,20.48
2022-12-18T12:31:58.839Z,21.50
2022-12-18T12:34:46.285Z,14.93
2022-12-18T12:37:38.342Z,17.17
2022-12-18T12:40:26.882Z,18.20
2022-12-18T12:43:16.381Z,18.23
2022-12-18T12:46:06.303Z,19.25
2022-12-18T12:48:56.365Z,19.25
2022-12-18T12:51:28.055Z,17.08
2022-12-18T12:53:57.494Z,20.58
2022-12-18T12:56:28.962Z,20.63
2022-12-18T12:59:14.921Z,18.70
2022-12-18T13:02:00.872Z,19.50
2022-12-18T13:04:46.818Z,16.98
2022-12-18T13:07:22.989Z,19.25
2022-12-18T13:10:19.059Z,19.17
2022-12-18T13:13:09.017Z,17.15
2022-12-18T13:15:47.581Z,18.00
2022-12-18T13:18:27.496Z,16.90
2022-12-18T13:21:03.345Z,19.27
2022-12-18T13:23:38.129Z,21.67
2022-12-18T13:26:07.435Z,20.63
2022-12-18T13:28:34.235Z,18.88
2022-12-18T13:31:02.547Z,20.40
2022-12-18T13:34:01.938Z,18.17
2022-12-18T13:36:33.864Z,21.92
2022-12-18T13:39:19.725Z,17.73
2022-12-18T13:41:55.515Z,18.90
2022-12-18T13:44:31.058Z,16.38
2022-12-18T13:47:06.070Z,19.52
2022-12-18T13:49:42.005Z,19.33
2022-12-18T13:52:17.920Z,17.23
2022-12-18T13:54:51.607Z,18.63
2022-12-18T13:57:33.877Z,20.42
2022-12-18T14:00:18.218Z,18.63
2022-12-18T14:02:46.987Z,21.00
2022-12-18T14:05:27.282Z,20.70
2022-12-18T14:07:55.752Z,22.52
2022-12-18T14:10:44.437Z,20.60
2022-12-18T14:13:16.148Z,18.35
2022-12-18T14:15:47.563Z,20.60
2022-12-18T14:18:34.094Z,19.20
2022-12-18T14:21:03.010Z,20.27
2022-12-18T14:23:42.290Z,18.88
2022-12-18T14:26:28.139Z,18.80
2022-12-18T14:28:56.856Z,19.65
2022-12-18T14:31:26.664Z,20.17
2022-12-18T14:33:54.099Z,22.17
2022-12-18T14:36:29.514Z,18.55
2022-12-18T14:38:58.504Z,17.77
2022-12-18T14:41:26.462Z,17.15
2022-12-18T14:43:55.172Z,19.08
2022-12-18T14:46:37.705Z,18.35
2022-12-18T14:49:22.815Z,18.10
2022-12-18T14:51:55.645Z,17.35
2022-12-18T14:54:25.008Z,19.17
2022-12-18T14:57:31.397Z,18.08
2022-12-18T15:00:15.906Z,18.25
2022-12-18T15:02:44.399Z,19.77
2022-12-18T15:05:13.829Z,20.50
2022-12-18T15:07:56.531Z,21.35
2022-12-18T15:10:25.775Z,18.80
2022-12-18T15:13:03.523Z,19.63
2022-12-18T15:15:39.321Z,19.77
2022-12-18T15:18:24.627Z,20.70
2022-12-18T15:20:56.220Z,18.85
2022-12-18T15:23:26.488Z,21.67
2022-12-18T15:26:04.940Z,20.35
2022-12-18T15:28:53.728Z,23.23
2022-12-18T15:31:25.083Z,23.23
2022-12-18T15:34:00.144Z,19.42
2022-12-18T15:36:27.172Z,22.33
2022-12-18T15:38:59.242Z,17.67
2022-12-18T15:41:37.009Z,20.75
2022-12-18T15:44:18.168Z,18.45
2022-12-18T15:46:45.066Z,16.85
2022-12-18T15:49:11.648Z,18.52
2022-12-18T15:51:39.423Z,18.77
2022-12-18T15:54:12.553Z,16.65
2022-12-18T15:56:57.569Z,20.25
2022-12-18T15:59:25.563Z,20.73
2022-12-18T16:01:54.137Z,17.92
2022-12-18T16:04:22.581Z,20.00
2022-12-18T16:07:13.938Z,18.67
2022-12-18T16:09:37.622Z,18.13
2022-12-18T16:12:05.109Z,16.27
2022-12-18T16:14:32.813Z,18.65
2022-12-18T16:17:06.492Z,19.95
2022-12-18T16:19:33.141Z,19.00
2022-12-18T16:21:59.805Z,19.33
2022-12-18T16:24:29.697Z,13.45
2022-12-18T16:26:59.825Z,16.60
2022-12-18T16:29:28.609Z,15.52
2022-12-18T16:32:00.746Z,15.98
2022-12-18T16:34:35.306Z,15.40
2022-12-18T16:37:07.213Z,26.13
2022-12-18T16:39:39.058Z,26.98
2022-12-18T16:42:09.902Z,24.02
2022-12-18T16:44:36.696Z,21.70
2022-12-18T16:47:04.344Z,26.23
2022-12-18T16:49:32.270Z,23.77
2022-12-18T16:51:59.201Z,31.38
2022-12-18T16:54:25.861Z,28.80
2022-12-18T16:56:56.367Z,26.25
2022-12-18T16:59:23.306Z,27.70
2022-12-18T17:01:50.520Z,28.48
2022-12-18T17:04:17.919Z,23.02
2022-12-18T17:06:46.076Z,23.33
2022-12-18T17:09:15.352Z,26.02
2022-12-18T17:11:42.561Z,21.90
2022-12-18T17:14:13.701Z,22.13
2022-12-18T17:16:40.304Z,24.30
2022-12-18T17:19:12.115Z,21.15
2022-12-18T17:21:41.955Z,21.38
2022-12-18T17:24:09.284Z,20.73
2022-12-18T17:26:36.782Z,19.73
2022-12-18T17:29:04.120Z,23.58
2022-12-18T17:31:33.299Z,19.90
2022-12-18T17:34:03.981Z,19.48
2022-12-18T17:36:32.386Z,21.20
2022-12-18T17:39:02.625Z,20.95
2022-12-18T17:41:30.601Z,19.60
2022-12-18T17:44:01.509Z,23.02
2022-12-18T17:46:30.175Z,20.20
2022-12-18T17:49:00.632Z,20.33
2022-12-18T17:51:28.447Z,18.75
2022-12-18T17:53:55.220Z,22.50
2022-12-18T17:56:23.879Z,19.85
2022-12-18T17:58:50.826Z,20.85
2022-12-18T18:01:23.429Z,21.20
2022-12-18T18:03:52.884Z,19.38
2022-12-18T18:06:22.539Z,18.70
2022-12-18T18:08:49.513Z,23.90
2022-12-18T18:11:38.018Z,20.27
2022-12-18T18:14:08.154Z,20.55
2022-12-18T18:16:41.396Z,21.00
2022-12-18T18:19:12.918Z,18.27
2022-12-18T18:21:41.975Z,21.95
2022-12-18T18:24:10.254Z,19.50
2022-12-18T18:26:37.428Z,22.67
2022-12-18T18:29:06.549Z,21.58
2022-12-18T18:31:41.397Z,21.80
2022-12-18T18:34:13.614Z,18.73
2022-12-18T18:36:40.315Z,23.48
2022-12-18T18:39:06.977Z,27.65
2022-12-18T18:41:35.857Z,32.95
2022-12-18T18:44:02.989Z,40.33
2022-12-18T18:46:29.588Z,27.67
2022-12-18T18:48:57.009Z,29.48
2022-12-18T18:51:23.986Z,23.38
2022-12-18T18:53:52.698Z,26.63
2022-12-18T18:59:08.533Z,23.67
2022-12-18T19:01:35.385Z,25.17
2022-12-18T19:04:02.127Z,28.40
2022-12-18T19:06:29.081Z,24.50
2022-12-18T19:08:58.513Z,25.83
2022-12-18T19:11:45.619Z,23.80
2022-12-18T19:14:14.312Z,24.10
2022-12-18T19:16:41.926Z,25.02
2022-12-18T19:19:09.078Z,24.23
2022-12-18T19:21:37.804Z,21.85
2022-12-18T19:24:05.674Z,24.83
2022-12-18T19:26:32.267Z,28.27
2022-12-18T19:29:06.670Z,26.75
2022-12-18T19:31:36.122Z,20.67
2022-12-18T19:34:04.941Z,23.58
2022-12-18T19:36:32.809Z,24.23
2022-12-18T19:39:02.535Z,22.35
2022-12-18T19:41:31.375Z,22.17
2022-12-18T19:44:02.222Z,23.85
2022-12-18T19:46:34.697Z,21.13
2022-12-18T19:49:01.934Z,21.60
2022-12-18T19:51:30.770Z,21.13
2022-12-18T19:54:00.520Z,22.23
2022-12-18T19:56:31.534Z,25.63
2022-12-18T19:58:58.350Z,21.08
2022-12-18T20:01:26.301Z,22.10
2022-12-18T20:03:54.596Z,28.75
2022-12-18T20:06:33.190Z,25.98
2022-12-18T20:09:03.296Z,23.67
2022-12-18T20:11:31.039Z,20.63
2022-12-18T20:13:58.387Z,21.00
2022-12-18T20:16:25.357Z,23.70
2022-12-18T20:18:52.451Z,21.92
2022-12-18T20:21:19.529Z,20.63
2022-12-18T20:23:46.330Z,20.35
2022-12-18T20:26:13.327Z,23.77
2022-12-18T20:28:40.692Z,24.55
2022-12-18T20:31:13.668Z,22.48
2022-12-18T20:33:41.999Z,23.47
2022-12-18T20:36:14.374Z,21.92
2022-12-18T20:38:42.526Z,23.70
2022-12-18T20:41:11.999Z,21.85
2022-12-18T20:43:39.877Z,22.08
2022-12-18T20:46:10.703Z,21.63
2022-12-18T20:48:37.534Z,21.70
2022-12-18T20:51:07.284Z,23.50
2022-12-18T20:53:35.135Z,22.27
2022-12-18T20:56:05.963Z,27.83
2022-12-18T20:58:32.594Z,22.95
2022-12-18T21:01:06.833Z,23.60
2022-12-18T21:03:33.772Z,25.08
2022-12-18T21:06:00.690Z,22.00
2022-12-18T21:08:27.374Z,22.75
2022-12-18T21:10:54.235Z,22.58
2022-12-18T21:13:22.539Z,24.35
2022-12-18T21:15:49.312Z,19.77
2022-12-18T21:18:16.004Z,22.33
2022-12-18T21:20:42.766Z,21.58
2022-12-18T21:23:16.236Z,20.98
2022-12-18T21:25:44.483Z,22.30
2022-12-18T21:28:12.451Z,22.15
2022-12-18T21:30:39.236Z,23.45
2022-12-18T21:33:05.977Z,22.85
2022-12-18T21:35:32.963Z,24.63
2022-12-18T21:37:59.634Z,23.55
2022-12-18T21:40:28.350Z,20.98
2022-12-18T21:43:16.615Z,25.23
2022-12-18T21:45:44.758Z,26.33
2022-12-18T21:48:12.295Z,24.95
2022-12-18T21:50:39.071Z,23.65
2022-12-18T21:53:05.762Z,22.70
2022-12-18T21:55:32.408Z,23.60
2022-12-18T21:57:59.168Z,24.90
2022-12-18T22:00:25.923Z,24.00
2022-12-18T22:03:17.757Z,31.27
2022-12-18T22:05:39.553Z,26.58
2022-12-18T22:08:07.090Z,28.05
2022-12-18T22:10:34.123Z,25.45
2022-12-18T22:13:01.170Z,27.58
2022-12-18T22:15:27.856Z,28.85
2022-12-18T22:17:58.716Z,29.02
2022-12-18T22:20:27.111Z,30.27
2022-12-18T22:22:53.773Z,28.35
2022-12-18T22:25:20.414Z,26.33
2022-12-18T22:28:07.134Z,27.98
2022-12-18T22:30:34.088Z,31.00
2022-12-18T22:33:01.417Z,24.33
2022-12-18T22:35:28.346Z,27.45
2022-12-18T22:37:55.015Z,23.27
2022-12-18T22:40:27.221Z,27.50
2022-12-18T22:42:54.754Z,30.45
2022-12-18T22:45:21.543Z,26.52
2022-12-18T22:47:48.307Z,27.58
2022-12-18T22:50:15.385Z,23.88
2022-12-18T22:52:42.182Z,26.85
2022-12-18T22:55:09.346Z,26.58
2022-12-18T22:57:36.478Z,28.80
2022-12-18T23:00:06.168Z,27.13
2022-12-18T23:02:33.115Z,26.63
2022-12-18T23:05:00.060Z,26.20
2022-12-18T23:07:26.639Z,28.08
2022-12-18T23:09:54.217Z,27.08
2022-12-18T23:14:53.882Z,25.67
2022-12-18T23:17:20.494Z,26.50
2022-12-18T23:19:49.174Z,27.23
2022-12-18T23:22:16.914Z,31.10
2022-12-18T23:24:43.513Z,28.50
2022-12-18T23:27:11.902Z,27.25
2022-12-18T23:29:39.896Z,27.15
2022-12-18T23:32:06.873Z,26.58
2022-12-18T23:34:33.684Z,29.15
2022-12-18T23:37:01.207Z,30.05
2022-12-18T23:39:29.387Z,29.77
2022-12-18T23:42:00.564Z,29.33
2022-12-18T23:44:27.660Z,26.38
2022-12-18T23:46:54.849Z,31.48
2022-12-18T23:49:21.742Z,29.17
2022-12-18T23:51:48.581Z,31.20
2022-12-18T23:54:15.208Z,25.90
2022-12-18T23:56:42.293Z,28.38
2022-12-18T23:59:09.163Z,30.73
